createdAt,value
2023-06-01T00:00:11.222Z,63.00
2023-06-01T00:05:15.138Z,62.52
2023-06-01T00:10:16.915Z,62.21
2023-06-01T00:15:18.626Z,63.05
2023-06-01T00:20:20.326Z,64.50
2023-06-01T00:25:22.205Z,63.02
2023-06-01T00:30:24.139Z,65.02
2023-06-01T00:35:25.992Z,64.77
2023-06-01T00:40:27.825Z,65.32
2023-06-01T00:45:29.712Z,64.67
2023-06-01T00:50:32.217Z,65.44
2023-06-01T00:55:34.856Z,66.48
2023-06-01T01:00:38.601Z,66.87
2023-06-01T01:05:42.205Z,67.88
2023-06-01T01:10:51.187Z,70.19
2023-06-01T01:16:00.155Z,69.17
2023-06-01T01:21:23.142Z,70.53
2023-06-01T01:26:54.037Z,70.69
2023-06-01T01:31:57.047Z,70.86
2023-06-01T01:36:59.845Z,70.89
2023-06-01T01:42:01.692Z,72.21
2023-06-01T01:47:26.537Z,73.92
2023-06-01T01:52:39.328Z,74.22
2023-06-01T01:57:43.875Z,73.83
2023-06-01T02:02:48.803Z,74.94
2023-06-01T02:07:51.841Z,75.68
2023-06-01T02:12:53.613Z,77.63
2023-06-01T02:17:55.318Z,76.95
2023-06-01T02:22:57.667Z,77.09
2023-06-01T02:27:59.360Z,76.57
2023-06-01T02:33:01.183Z,75.20
2023-06-01T02:38:03.886Z,77.20
2023-06-01T02:43:05.870Z,78.66
2023-06-01T02:48:07.636Z,78.00
2023-06-01T02:53:09.733Z,79.24
2023-06-01T02:58:17.298Z,78.67
2023-06-01T03:03:43.181Z,80.81
2023-06-01T03:08:45.056Z,81.15
2023-06-01T03:14:03.683Z,81.49
2023-06-01T03:19:06.639Z,81.14
2023-06-01T03:24:08.729Z,78.89
2023-06-01T03:29:10.591Z,81.47
2023-06-01T03:34:12.740Z,83.76
2023-06-01T03:39:18.176Z,81.78
2023-06-01T03:44:20.444Z,82.09
2023-06-01T03:49:22.414Z,83.88
2023-06-01T03:54:24.876Z,82.86
2023-06-01T03:59:26.778Z,82.47
2023-06-01T04:04:30.452Z,82.18
2023-06-01T04:09:32.276Z,82.03
2023-06-01T04:14:34.109Z,81.04
2023-06-01T04:19:36.250Z,80.76
2023-06-01T04:24:42.604Z,79.22
2023-06-01T04:29:45.223Z,79.63
2023-06-01T04:34:49.244Z,78.25
2023-06-01T04:39:52.658Z,79.03
2023-06-01T04:44:54.757Z,78.96
2023-06-01T04:49:57.240Z,78.91
2023-06-01T04:54:59.345Z,78.12
2023-06-01T05:00:01.697Z,73.30
2023-06-01T05:05:04.447Z,73.31
2023-06-01T05:10:07.813Z,72.33
2023-06-01T05:15:17.984Z,70.18
2023-06-01T05:20:21.297Z,68.87
2023-06-01T05:25:31.063Z,64.91
2023-06-01T05:30:32.945Z,59.19
2023-06-01T05:35:35.897Z,56.68
2023-06-01T05:40:42.686Z,54.92
2023-06-01T05:45:44.672Z,55.00
2023-06-01T05:50:46.544Z,53.98
2023-06-01T05:55:50.224Z,52.40
2023-06-01T06:00:54.043Z,51.34
2023-06-01T06:05:56.172Z,52.49
2023-06-01T06:10:58.049Z,53.12
2023-06-01T06:15:59.757Z,50.97
2023-06-01T06:21:01.829Z,51.52
2023-06-01T06:26:03.762Z,51.81
2023-06-01T06:31:05.721Z,50.58
2023-06-01T06:36:07.494Z,53.72
2023-06-01T06:41:09.579Z,52.34
2023-06-01T06:46:11.400Z,50.25
2023-06-01T06:51:13.316Z,51.12
2023-06-01T06:56:15.104Z,51.96
2023-06-01T07:01:16.948Z,53.24
2023-06-01T07:06:19.388Z,51.44
2023-06-01T07:11:22.066Z,52.27
2023-06-01T07:16:25.804Z,53.14
2023-06-01T07:21:27.771Z,54.16
2023-06-01T07:26:30.871Z,52.80
2023-06-01T07:31:33.666Z,53.34
2023-06-01T07:36:38.286Z,51.34
2023-06-01T07:41:40.928Z,52.91
2023-06-01T07:46:42.735Z,50.48
2023-06-01T07:51:44.744Z,51.13
2023-06-01T07:56:48.269Z,49.41
2023-06-01T08:01:50.858Z,49.73
2023-06-01T08:06:54.172Z,48.58
2023-06-01T08:11:56.051Z,47.95
2023-06-01T08:16:57.956Z,45.66
2023-06-01T08:22:00.216Z,46.29
2023-06-01T08:27:02.141Z,46.50
2023-06-01T08:32:03.954Z,46.78
2023-06-01T08:37:05.970Z,47.08
2023-06-01T08:42:11.374Z,47.87
2023-06-01T08:47:14.396Z,46.80
2023-06-01T08:52:21.658Z,46.48
2023-06-01T08:57:23.721Z,45.26
2023-06-01T09:02:26.339Z,44.58
2023-06-01T09:07:29.250Z,43.85
2023-06-01T09:12:31.490Z,42.48
2023-06-01T09:17:34.064Z,40.25
2023-06-01T09:22:43.084Z,40.19
2023-06-01T09:27:50.490Z,38.65
2023-06-01T09:33:07.347Z,38.28
2023-06-01T09:38:09.730Z,39.56
2023-06-01T09:43:22.922Z,37.82
2023-06-01T09:48:24.643Z,37.71
2023-06-01T09:53:27.450Z,36.81
2023-06-01T09:58:29.626Z,38.72
2023-06-01T10:03:31.823Z,36.83
2023-06-01T10:08:35.093Z,37.25
2023-06-01T10:13:37.298Z,38.24
2023-06-01T10:18:39.918Z,39.18
2023-06-01T10:23:42.353Z,39.87
2023-06-01T10:28:46.987Z,39.54
2023-06-01T10:33:56.653Z,38.37
2023-06-01T10:39:24.842Z,39.11
2023-06-01T10:44:41.862Z,36.98
2023-06-01T10:49:49.768Z,36.94
2023-06-01T10:54:51.681Z,38.14
2023-06-01T11:00:12.325Z,40.21
2023-06-01T11:05:49.234Z,38.05
2023-06-01T11:10:54.437Z,37.19
2023-06-01T11:16:09.056Z,36.76
2023-06-01T11:21:12.217Z,37.24
2023-06-01T11:26:17.042Z,36.87
2023-06-01T11:31:21.968Z,36.70
2023-06-01T11:36:27.516Z,34.66
2023-06-01T11:41:29.239Z,35.48
2023-06-01T11:46:31.618Z,34.98
2023-06-01T11:51:43.591Z,34.79
2023-06-01T11:56:46.730Z,35.89
2023-06-01T12:01:50.953Z,34.56
2023-06-01T12:06:52.874Z,34.40
2023-06-01T12:11:56.098Z,34.70
2023-06-01T12:16:59.814Z,32.29
2023-06-01T12:22:02.121Z,34.26
2023-06-01T12:27:18.278Z,35.20
2023-06-01T12:32:20.931Z,32.10
2023-06-01T12:37:22.710Z,31.53
2023-06-01T12:42:44.662Z,31.98
2023-06-01T12:47:46.504Z,33.50
2023-06-01T12:52:48.260Z,34.85
2023-06-01T12:57:54.532Z,31.68
2023-06-01T13:02:56.279Z,30.57
2023-06-01T13:07:58.683Z,32.73
2023-06-01T13:13:01.194Z,32.23
2023-06-01T13:18:03.134Z,32.92
2023-06-01T13:23:05.130Z,34.68
2023-06-01T13:28:08.975Z,34.78
2023-06-01T13:33:11.004Z,32.73
2023-06-01T13:38:13.294Z,32.67
2023-06-01T13:43:15.078Z,35.35
2023-06-01T13:48:19.548Z,35.64
2023-06-01T13:53:22.379Z,36.99
2023-06-01T13:58:24.083Z,36.02
2023-06-01T14:03:25.896Z,36.01
2023-06-01T14:08:27.800Z,36.70
2023-06-01T14:13:29.531Z,35.09
2023-06-01T14:18:31.204Z,34.05
2023-06-01T14:23:33.583Z,32.92
2023-06-01T14:28:35.389Z,30.76
2023-06-01T14:33:38.150Z,29.43
2023-06-01T14:38:40.292Z,29.19
2023-06-01T14:43:42.003Z,28.64
2023-06-01T14:48:43.788Z,27.83
2023-06-01T14:53:46.928Z,31.64
2023-06-01T14:58:48.671Z,29.83
2023-06-01T15:03:50.783Z,24.89
2023-06-01T15:08:52.586Z,26.42
2023-06-01T15:13:54.342Z,27.25
2023-06-01T15:18:56.260Z,27.17
2023-06-01T15:23:57.985Z,26.93
2023-06-01T15:29:00.016Z,28.64
2023-06-01T15:34:01.792Z,27.89
2023-06-01T15:39:05.094Z,28.07
2023-06-01T15:44:06.843Z,28.23
2023-06-01T15:49:09.211Z,28.90
2023-06-01T15:54:11.041Z,30.92
2023-06-01T15:59:12.817Z,31.90
2023-06-01T16:04:16.096Z,31.84
2023-06-01T16:09:18.657Z,31.45
2023-06-01T16:14:20.711Z,32.45
2023-06-01T16:19:22.379Z,32.87
2023-06-01T16:24:24.291Z,34.55
2023-06-01T16:29:26.036Z,34.62
2023-06-01T16:34:27.906Z,35.56
2023-06-01T16:39:29.582Z,34.64
2023-06-01T16:44:31.415Z,34.23
2023-06-01T16:49:33.246Z,34.38
2023-06-01T16:54:35.631Z,34.02
2023-06-01T16:59:38.255Z,33.61
2023-06-01T17:04:40.167Z,34.80
2023-06-01T17:09:42.183Z,34.92
2023-06-01T17:14:47.634Z,36.27
2023-06-01T17:19:49.518Z,36.35
2023-06-01T17:24:51.914Z,36.29
2023-06-01T17:29:53.710Z,36.75
2023-06-01T17:34:55.549Z,37.45
2023-06-01T17:39:57.256Z,38.65
2023-06-01T17:44:58.987Z,38.17
2023-06-01T17:50:00.800Z,37.85
2023-06-01T17:55:02.628Z,38.22
2023-06-01T18:00:05.052Z,38.98
2023-06-01T18:05:10.179Z,39.12
2023-06-01T18:10:12.127Z,39.20
2023-06-01T18:15:13.907Z,39.88
2023-06-01T18:20:15.680Z,40.71
2023-06-01T18:25:17.591Z,41.09
2023-06-01T18:30:19.336Z,41.63
2023-06-01T18:35:21.038Z,42.12
2023-06-01T18:40:23.572Z,43.28
2023-06-01T18:45:25.441Z,43.66
2023-06-01T18:50:30.993Z,44.11
2023-06-01T18:55:32.823Z,44.90
2023-06-01T19:00:34.566Z,45.03
2023-06-01T19:05:36.656Z,45.82
2023-06-01T19:11:00.149Z,46.38
2023-06-01T19:16:05.821Z,46.75
2023-06-01T19:21:13.190Z,47.45
2023-06-01T19:26:18.439Z,47.93
2023-06-01T19:31:24.527Z,48.58
2023-06-01T19:36:58.105Z,50.07
2023-06-01T19:42:02.660Z,49.82
2023-06-01T19:47:05.045Z,51.15
2023-06-01T19:52:08.814Z,51.51
2023-06-01T19:57:10.624Z,51.72
2023-06-01T20:02:40.876Z,52.47
2023-06-01T20:07:43.047Z,52.90
2023-06-01T20:12:44.795Z,53.71
2023-06-01T20:17:46.830Z,54.66
2023-06-01T20:22:48.648Z,55.14
2023-06-01T20:27:50.429Z,56.95
2023-06-01T20:32:54.628Z,56.89
2023-06-01T20:37:56.400Z,58.58
2023-06-01T20:42:58.216Z,59.67
2023-06-01T20:48:00.032Z,61.59
2023-06-01T20:53:01.859Z,62.54
2023-06-01T20:58:03.508Z,64.32
2023-06-01T21:03:05.456Z,64.88
2023-06-01T21:08:08.011Z,66.05
2023-06-01T21:13:09.774Z,67.19
2023-06-01T21:18:11.671Z,67.39
2023-06-01T21:23:13.649Z,68.32
2023-06-01T21:28:15.490Z,69.71
2023-06-01T21:33:17.383Z,69.70
2023-06-01T21:38:19.317Z,70.85
2023-06-01T21:43:21.869Z,71.48
2023-06-01T21:48:24.857Z,72.49
2023-06-01T21:53:27.134Z,72.74
2023-06-01T22:03:32.930Z,74.52
2023-06-01T22:08:34.829Z,75.08
2023-06-01T22:13:36.620Z,75.64
2023-06-01T22:18:38.386Z,75.94
2023-06-01T22:23:40.201Z,75.66
2023-06-01T22:28:42.041Z,75.73
2023-06-01T22:33:43.873Z,75.66
2023-06-01T22:38:45.677Z,77.59
2023-06-01T22:43:47.493Z,76.20
2023-06-01T22:48:50.905Z,76.48
2023-06-01T22:53:52.678Z,77.76
2023-06-01T22:58:54.508Z,77.04
2023-06-01T23:03:56.646Z,77.48
2023-06-01T23:08:58.502Z,77.03
2023-06-01T23:14:00.742Z,77.16
2023-06-01T23:19:04.755Z,77.37
2023-06-01T23:24:07.407Z,77.59
2023-06-01T23:29:09.286Z,77.42
2023-06-01T23:34:12.043Z,78.33
2023-06-01T23:39:14.110Z,77.78
2023-06-01T23:44:16.846Z,78.18
2023-06-01T23:49:19.019Z,78.21
2023-06-01T23:54:20.869Z,79.01
2023-06-01T23:59:22.648Z,78.89
